Strona główna
METAR-TAF:

METAR-TAF

Lotnisko :

Koszyce, Słowacja

Port lotniczy Koszyce

Szerokość geograficzna: 48-39-47N, Długość geograficzna: 021-14-28E, wysokość: 232 m

Aktualna obserwacja pogody

Raport powstał 7 minut temu, godzina 09:30 UTC
Wiatr 22 kt od północno-północny wschód
Temperatura -8°C
Wilgotność 48%
Ciśnienie 1023 hPa
Widzialność 10 km lub więcej
Brak chmur poniżej 1500 m i brak chmur cumulonimbus

METAR: LZKZ 250930Z 02022KT CAVOK M08/M17 Q1023 NOSIG

czas: 10:37 (09:37 UTC)

Prognoza

Raport powstał 4 godziny i 37 minut temu, godzina 05:00 UTC
Prognoza ważna od 25 godzina 06 UTC do 26 godzina 06 UTC
Wiatr 16 kt od północno-północny wschód
Widzialność 10 km lub więcej
Przerywane chmury na wysokości 4000 ft
Przejściowo
od 25 godzina 08 UTC do 25 godzina 20 UTC
Wiatr 20 kt od północno-północny wschód w porywach dochodzący do 30 kt

TAF: LZKZ 250500Z 2506/2606 02016KT 9999 BKN040 TEMPO 2508/2520 02020G30KT

Obserwacja i prognoza pogody dla ponad 4000 lotnisk (raport METAR i TAF).

Dostępne stacje oznaczono żółtymi i czerwonymi punktami na mapie.

Najedź kursorem aby zobaczyć nazwę stacji.

Kliknij aby zobaczyć obserwacje i prognozy pogody.

Aby zmienić mapę: kliknij na zielony przycisk z czarnym krzyżykiem, aby powiększyć; na zielony przycisk z myślnikiem, aby pomniejszyć; na zielone strzałki, aby przejść do map sąsiednich.


METAR-TAF: